Fargo (FAR/KFAR)

Map

Destinations

Information

Location
Fargo, ND
Local Time
20:45 / 8:45 pm
GMT Time
01:45 / 1:45 am
Gates
2
No FAA reported delays
METAR KFAR 270053Z 27008KT 10SM CLR 22/03 A3008 RMK AO2 SLP186 T02220033
TAF KFAR 262320Z 2700/2724 VRB06KT P6SM SKC FM271700 18013G23KT P6SM FEW200